Airfield :
LOGIN :

Register | Disclaimer

   EN    FR    IT 

 










Legend :    VFR   Marginal VFR   IFR   Intensive IFR   Very Intensive IFR
Visi :
Ceiling :
>= 8 km
>= 3000ft
5 to 8 km
1000 to 3000 ft
1500m to 5 km
500 to 1000 ft
800 to 1500m
200 to 500 ft
< 800m
< 200 ft
Symbols :   Thunderstorms  Fog  Heavy snow  Heavy precipitations  Wind > 20 kt
SIGMETs :     Misc.  Thunderstorms  Icing  Turbulence  Mountain Waves  Volcanic Ashes






- Airport Elevation : 11 ft
- IATA code : SXL


EISG - Sligo

CURRENT METAR :
  • 271800Z 17005KT 110V230 9999 BKN016 OVC022 07/05 Q0997

EXPIRED METARs :
  • 271730Z 16007KT 120V210 CAVOK 07/05 Q0997
  • 271700Z 16007KT 120V200 9999 FEW043 07/04 Q0997
  • 271630Z 16009KT 130V200 CAVOK 07/05 Q0997
  • 271600Z 17008KT 130V220 6000 SCT015 BKN034 OVC040 07/05 Q0997
  • 271530Z 19010G22KT 120V250 3600 SCT016 BKN025 OVC036 07/05 Q0998

TAF TAF EISG
Valid from the 27 at 18:00 until the 28 at 03:00 UTC


271700Z 2718/2803 17012KT 9999 FEW013 BKN030
TEMPO 2718/2719 18018G30KT 4000 SHRA SCT018CB
TEMPO 2719/2803 -SHRA SCT018CB
PROB40
TEMPO 2719/2803 18015G25KT 4000 SHRA



MET'MAP, your aeronautical weather chart ! - Copyright ORBIFLY December 2007 - Disclaimer

ORBIFLY MET'MAP TEAM :

Programming & Development : Alexandra Zaïnal
Original concept : Baudouin d'Aumeries
Technical & hardware support : Manuel Goepfert
Assistance : Marc-Olivier Méhu




SOURCES & CREDITS :

   NOAA